RJOA

Hiroshima Airport

Hiroshima, Japan
TAF AMD RJOA 241956Z 2419/2600 07006KT 9999 FEW010 SCT020 BKN040
Issued Valid From Valid To
Sep-24 @ 19:56 UTC
(3 hours ago)
Sep-24 @ 19:00 UTC
(4 hours ago)
Sep-26 @ 00:00 UTC
(-1 days ago)
Sep-24 @ 19:00 to Sep-26 @ 00:00
TAF AMD RJOA 241956Z 2419/2600 07006KT 9999 FEW010 SCT020 BKN040
Wind Visibility Clouds
70° at 6 knots 10,000+ meters
  • Few at 1,000' AGL
  • Scattered at 2,000' AGL
  • Broken at 4,000' AGL
TAF AMD RJOA 241956Z 2419/2600 07006KT 9999 FEW010 SCT020 BKN040
Issued Sep-24 @ 19:56 UTC
(3 hours ago)
Valid From Sep-24 @ 19:00 UTC
(4 hours ago)
Valid To Sep-26 @ 00:00 UTC
(-1 days ago)
Sep-24 @ 19:00 - Sep-26 @ 00:00
Wind Visibility
70° at 6 knots 10,000+ meters
Clouds
  • Few at 1,000' AGL
  • Scattered at 2,000' AGL
  • Broken at 4,000' AGL